sensor_id;sensor_type;location;lat;lon;timestamp;P1;durP1;ratioP1;P2;durP2;ratioP2
912;SDS011;443;51.448;7.028;2023-07-02T00:01:36;3.50;;;2.10;;
912;SDS011;443;51.448;7.028;2023-07-02T00:04:02;4.93;;;3.00;;
912;SDS011;443;51.448;7.028;2023-07-02T00:06:29;4.03;;;2.73;;
912;SDS011;443;51.448;7.028;2023-07-02T00:08:57;5.77;;;3.70;;
912;SDS011;443;51.448;7.028;2023-07-02T00:11:24;5.13;;;2.70;;
912;SDS011;443;51.448;7.028;2023-07-02T00:13:50;3.83;;;2.77;;
912;SDS011;443;51.448;7.028;2023-07-02T00:16:17;4.13;;;2.60;;
912;SDS011;443;51.448;7.028;2023-07-02T00:18:45;5.40;;;2.67;;
912;SDS011;443;51.448;7.028;2023-07-02T00:21:17;2.87;;;2.30;;
912;SDS011;443;51.448;7.028;2023-07-02T00:23:45;4.73;;;2.67;;
912;SDS011;443;51.448;7.028;2023-07-02T00:26:12;6.87;;;3.00;;
912;SDS011;443;51.448;7.028;2023-07-02T00:28:39;3.90;;;2.37;;
912;SDS011;443;51.448;7.028;2023-07-02T00:31:06;5.07;;;2.47;;
912;SDS011;443;51.448;7.028;2023-07-02T00:33:33;4.53;;;2.53;;
912;SDS011;443;51.448;7.028;2023-07-02T00:36:01;3.50;;;2.37;;
912;SDS011;443;51.448;7.028;2023-07-02T00:38:28;3.90;;;2.50;;
912;SDS011;443;51.448;7.028;2023-07-02T00:40:55;3.20;;;2.60;;
912;SDS011;443;51.448;7.028;2023-07-02T00:43:22;4.37;;;2.50;;
912;SDS011;443;51.448;7.028;2023-07-02T00:45:49;10.73;;;3.10;;
912;SDS011;443;51.448;7.028;2023-07-02T00:48:16;5.87;;;3.40;;
912;SDS011;443;51.448;7.028;2023-07-02T00:50:43;13.70;;;3.50;;
912;SDS011;443;51.448;7.028;2023-07-02T00:53:11;5.10;;;2.60;;
912;SDS011;443;51.448;7.028;2023-07-02T00:55:38;10.40;;;3.20;;
912;SDS011;443;51.448;7.028;2023-07-02T00:58:05;9.63;;;2.50;;
912;SDS011;443;51.448;7.028;2023-07-02T01:00:33;6.43;;;2.47;;
912;SDS011;443;51.448;7.028;2023-07-02T01:03:00;8.07;;;3.47;;
912;SDS011;443;51.448;7.028;2023-07-02T01:05:27;5.60;;;4.00;;
912;SDS011;443;51.448;7.028;2023-07-02T01:08:00;5.13;;;3.30;;
912;SDS011;443;51.448;7.028;2023-07-02T01:10:28;3.70;;;2.90;;
912;SDS011;443;51.448;7.028;2023-07-02T01:12:56;3.40;;;2.33;;
912;SDS011;443;51.448;7.028;2023-07-02T01:15:26;6.80;;;3.07;;
912;SDS011;443;51.448;7.028;2023-07-02T01:17:53;14.80;;;2.97;;
912;SDS011;443;51.448;7.028;2023-07-02T01:20:22;3.60;;;2.60;;
912;SDS011;443;51.448;7.028;2023-07-02T01:22:51;7.37;;;2.87;;
912;SDS011;443;51.448;7.028;2023-07-02T01:25:18;7.83;;;2.73;;
912;SDS011;443;51.448;7.028;2023-07-02T01:27:49;6.10;;;2.40;;
912;SDS011;443;51.448;7.028;2023-07-02T01:30:16;2.93;;;2.30;;
912;SDS011;443;51.448;7.028;2023-07-02T01:32:43;6.60;;;2.77;;
912;SDS011;443;51.448;7.028;2023-07-02T01:35:10;5.93;;;2.90;;
912;SDS011;443;51.448;7.028;2023-07-02T01:37:38;4.83;;;3.13;;
912;SDS011;443;51.448;7.028;2023-07-02T01:40:05;3.43;;;2.70;;
912;SDS011;443;51.448;7.028;2023-07-02T01:42:33;4.10;;;2.70;;
912;SDS011;443;51.448;7.028;2023-07-02T01:45:00;5.70;;;2.83;;
912;SDS011;443;51.448;7.028;2023-07-02T01:47:27;4.90;;;2.40;;
912;SDS011;443;51.448;7.028;2023-07-02T01:49:53;5.70;;;3.37;;
912;SDS011;443;51.448;7.028;2023-07-02T01:52:20;3.87;;;2.53;;
912;SDS011;443;51.448;7.028;2023-07-02T01:54:48;5.90;;;3.00;;
912;SDS011;443;51.448;7.028;2023-07-02T01:57:17;10.30;;;3.50;;
912;SDS011;443;51.448;7.028;2023-07-02T01:59:44;4.20;;;2.70;;
912;SDS011;443;51.448;7.028;2023-07-02T02:02:10;6.37;;;2.90;;
912;SDS011;443;51.448;7.028;2023-07-02T02:04:37;5.63;;;3.67;;
912;SDS011;443;51.448;7.028;2023-07-02T02:07:04;4.10;;;3.00;;
912;SDS011;443;51.448;7.028;2023-07-02T02:09:30;6.80;;;2.67;;
912;SDS011;443;51.448;7.028;2023-07-02T02:11:59;4.17;;;2.70;;
912;SDS011;443;51.448;7.028;2023-07-02T02:14:26;4.57;;;3.70;;
912;SDS011;443;51.448;7.028;2023-07-02T02:16:53;12.43;;;4.00;;
912;SDS011;443;51.448;7.028;2023-07-02T02:19:19;10.33;;;3.13;;
912;SDS011;443;51.448;7.028;2023-07-02T02:21:46;5.63;;;3.00;;
912;SDS011;443;51.448;7.028;2023-07-02T02:24:13;6.20;;;3.80;;
912;SDS011;443;51.448;7.028;2023-07-02T02:26:40;8.77;;;3.73;;
912;SDS011;443;51.448;7.028;2023-07-02T02:29:08;8.60;;;3.90;;
912;SDS011;443;51.448;7.028;2023-07-02T02:31:35;9.80;;;4.40;;
912;SDS011;443;51.448;7.028;2023-07-02T02:34:02;9.87;;;3.80;;
912;SDS011;443;51.448;7.028;2023-07-02T02:36:29;6.93;;;4.07;;
912;SDS011;443;51.448;7.028;2023-07-02T02:38:57;12.47;;;3.53;;
912;SDS011;443;51.448;7.028;2023-07-02T02:41:24;14.77;;;5.43;;
912;SDS011;443;51.448;7.028;2023-07-02T02:43:50;8.23;;;5.00;;
912;SDS011;443;51.448;7.028;2023-07-02T02:46:20;10.20;;;4.27;;
912;SDS011;443;51.448;7.028;2023-07-02T02:48:48;10.63;;;5.67;;
912;SDS011;443;51.448;7.028;2023-07-02T02:51:14;13.07;;;4.67;;
912;SDS011;443;51.448;7.028;2023-07-02T02:53:41;9.03;;;4.70;;
912;SDS011;443;51.448;7.028;2023-07-02T02:56:08;9.17;;;5.50;;
912;SDS011;443;51.448;7.028;2023-07-02T02:58:35;8.90;;;4.83;;
912;SDS011;443;51.448;7.028;2023-07-02T03:01:01;9.43;;;4.17;;
912;SDS011;443;51.448;7.028;2023-07-02T03:03:37;9.23;;;5.00;;
912;SDS011;443;51.448;7.028;2023-07-02T03:06:05;13.20;;;5.70;;
912;SDS011;443;51.448;7.028;2023-07-02T03:08:32;11.50;;;5.50;;
912;SDS011;443;51.448;7.028;2023-07-02T03:10:59;14.03;;;6.17;;
912;SDS011;443;51.448;7.028;2023-07-02T03:13:25;8.60;;;5.63;;
912;SDS011;443;51.448;7.028;2023-07-02T03:15:52;11.47;;;5.87;;
912;SDS011;443;51.448;7.028;2023-07-02T03:18:19;19.63;;;5.73;;
912;SDS011;443;51.448;7.028;2023-07-02T03:20:47;13.60;;;5.93;;
912;SDS011;443;51.448;7.028;2023-07-02T03:23:14;17.17;;;5.77;;
912;SDS011;443;51.448;7.028;2023-07-02T03:25:41;13.50;;;5.67;;
912;SDS011;443;51.448;7.028;2023-07-02T03:28:08;11.50;;;5.77;;
912;SDS011;443;51.448;7.028;2023-07-02T03:30:35;15.17;;;6.70;;
912;SDS011;443;51.448;7.028;2023-07-02T03:33:01;13.00;;;6.80;;
912;SDS011;443;51.448;7.028;2023-07-02T03:35:28;8.50;;;5.47;;
912;SDS011;443;51.448;7.028;2023-07-02T03:37:56;14.30;;;6.83;;
912;SDS011;443;51.448;7.028;2023-07-02T03:40:23;10.97;;;5.80;;
912;SDS011;443;51.448;7.028;2023-07-02T03:42:50;12.40;;;5.50;;
912;SDS011;443;51.448;7.028;2023-07-02T03:45:17;18.77;;;6.50;;
912;SDS011;443;51.448;7.028;2023-07-02T03:47:43;12.97;;;5.50;;
912;SDS011;443;51.448;7.028;2023-07-02T03:50:10;12.27;;;7.40;;
912;SDS011;443;51.448;7.028;2023-07-02T03:52:37;10.40;;;6.20;;
912;SDS011;443;51.448;7.028;2023-07-02T03:55:05;13.47;;;6.90;;
912;SDS011;443;51.448;7.028;2023-07-02T03:57:33;15.33;;;6.53;;
912;SDS011;443;51.448;7.028;2023-07-02T03:59:59;10.13;;;6.00;;
912;SDS011;443;51.448;7.028;2023-07-02T04:02:26;18.20;;;7.10;;
912;SDS011;443;51.448;7.028;2023-07-02T04:04:53;9.73;;;6.30;;
912;SDS011;443;51.448;7.028;2023-07-02T04:07:20;14.87;;;6.60;;
912;SDS011;443;51.448;7.028;2023-07-02T04:09:46;15.47;;;7.47;;
912;SDS011;443;51.448;7.028;2023-07-02T04:12:14;16.73;;;7.63;;
912;SDS011;443;51.448;7.028;2023-07-02T04:14:41;10.20;;;7.20;;
912;SDS011;443;51.448;7.028;2023-07-02T04:17:08;12.97;;;8.20;;
912;SDS011;443;51.448;7.028;2023-07-02T04:19:35;13.60;;;6.87;;
912;SDS011;443;51.448;7.028;2023-07-02T04:22:01;10.70;;;7.57;;
912;SDS011;443;51.448;7.028;2023-07-02T04:24:28;15.73;;;7.93;;
912;SDS011;443;51.448;7.028;2023-07-02T04:26:55;20.47;;;9.23;;
912;SDS011;443;51.448;7.028;2023-07-02T04:29:23;14.70;;;7.83;;
912;SDS011;443;51.448;7.028;2023-07-02T04:31:50;20.63;;;7.73;;
912;SDS011;443;51.448;7.028;2023-07-02T04:34:16;12.60;;;7.10;;
912;SDS011;443;51.448;7.028;2023-07-02T04:36:46;22.03;;;8.73;;
912;SDS011;443;51.448;7.028;2023-07-02T04:39:13;19.80;;;7.80;;
912;SDS011;443;51.448;7.028;2023-07-02T04:41:40;19.87;;;7.90;;
912;SDS011;443;51.448;7.028;2023-07-02T04:44:06;12.23;;;6.70;;
912;SDS011;443;51.448;7.028;2023-07-02T04:46:35;16.63;;;7.63;;
912;SDS011;443;51.448;7.028;2023-07-02T04:49:02;14.73;;;7.97;;
912;SDS011;443;51.448;7.028;2023-07-02T04:51:29;19.23;;;8.73;;
912;SDS011;443;51.448;7.028;2023-07-02T04:53:55;14.83;;;6.30;;
912;SDS011;443;51.448;7.028;2023-07-02T04:56:22;16.87;;;9.37;;
912;SDS011;443;51.448;7.028;2023-07-02T04:58:49;19.53;;;8.30;;
912;SDS011;443;51.448;7.028;2023-07-02T05:01:15;16.03;;;8.20;;
912;SDS011;443;51.448;7.028;2023-07-02T05:03:44;21.77;;;9.63;;
912;SDS011;443;51.448;7.028;2023-07-02T05:06:10;9.53;;;6.57;;
912;SDS011;443;51.448;7.028;2023-07-02T05:08:37;14.10;;;8.73;;
912;SDS011;443;51.448;7.028;2023-07-02T05:11:04;16.90;;;8.90;;
912;SDS011;443;51.448;7.028;2023-07-02T05:13:30;20.53;;;9.80;;
912;SDS011;443;51.448;7.028;2023-07-02T05:15:57;17.13;;;9.90;;
912;SDS011;443;51.448;7.028;2023-07-02T05:18:24;12.67;;;8.50;;
912;SDS011;443;51.448;7.028;2023-07-02T05:20:52;18.40;;;9.27;;
912;SDS011;443;51.448;7.028;2023-07-02T05:23:19;26.73;;;8.60;;
912;SDS011;443;51.448;7.028;2023-07-02T05:25:45;17.53;;;8.90;;
912;SDS011;443;51.448;7.028;2023-07-02T05:28:12;14.90;;;8.77;;
912;SDS011;443;51.448;7.028;2023-07-02T05:30:39;15.63;;;8.97;;
912;SDS011;443;51.448;7.028;2023-07-02T05:33:06;26.33;;;8.87;;
912;SDS011;443;51.448;7.028;2023-07-02T05:35:32;14.20;;;8.37;;
912;SDS011;443;51.448;7.028;2023-07-02T05:38:00;20.53;;;10.07;;
912;SDS011;443;51.448;7.028;2023-07-02T05:40:27;24.23;;;9.73;;
912;SDS011;443;51.448;7.028;2023-07-02T05:42:54;22.30;;;10.83;;
912;SDS011;443;51.448;7.028;2023-07-02T05:45:21;20.00;;;9.40;;
912;SDS011;443;51.448;7.028;2023-07-02T05:47:48;15.50;;;8.37;;
912;SDS011;443;51.448;7.028;2023-07-02T05:50:15;16.27;;;10.17;;
912;SDS011;443;51.448;7.028;2023-07-02T05:52:42;17.80;;;9.00;;
912;SDS011;443;51.448;7.028;2023-07-02T05:55:10;12.60;;;6.80;;
912;SDS011;443;51.448;7.028;2023-07-02T05:57:37;21.20;;;10.70;;
912;SDS011;443;51.448;7.028;2023-07-02T06:00:04;19.53;;;8.93;;
912;SDS011;443;51.448;7.028;2023-07-02T06:02:31;19.50;;;10.30;;
912;SDS011;443;51.448;7.028;2023-07-02T06:04:58;18.00;;;8.80;;
912;SDS011;443;51.448;7.028;2023-07-02T06:07:26;14.73;;;8.53;;
912;SDS011;443;51.448;7.028;2023-07-02T06:09:53;14.73;;;7.63;;
912;SDS011;443;51.448;7.028;2023-07-02T06:12:22;15.27;;;9.57;;
912;SDS011;443;51.448;7.028;2023-07-02T06:14:49;16.83;;;9.20;;
912;SDS011;443;51.448;7.028;2023-07-02T06:17:15;12.23;;;8.60;;
912;SDS011;443;51.448;7.028;2023-07-02T06:19:44;18.03;;;8.27;;
912;SDS011;443;51.448;7.028;2023-07-02T06:22:11;27.73;;;10.17;;
912;SDS011;443;51.448;7.028;2023-07-02T06:24:38;21.90;;;9.80;;
912;SDS011;443;51.448;7.028;2023-07-02T06:27:05;15.47;;;8.60;;
912;SDS011;443;51.448;7.028;2023-07-02T06:29:33;15.80;;;7.37;;
912;SDS011;443;51.448;7.028;2023-07-02T06:32:00;17.60;;;10.27;;
912;SDS011;443;51.448;7.028;2023-07-02T06:34:27;17.83;;;9.13;;
912;SDS011;443;51.448;7.028;2023-07-02T06:36:53;14.40;;;8.40;;
912;SDS011;443;51.448;7.028;2023-07-02T06:39:20;16.27;;;7.77;;
912;SDS011;443;51.448;7.028;2023-07-02T06:41:47;19.03;;;7.50;;
912;SDS011;443;51.448;7.028;2023-07-02T06:44:14;11.80;;;7.20;;
912;SDS011;443;51.448;7.028;2023-07-02T06:46:44;18.03;;;6.67;;
912;SDS011;443;51.448;7.028;2023-07-02T06:49:12;13.83;;;7.30;;
912;SDS011;443;51.448;7.028;2023-07-02T06:51:38;18.27;;;6.97;;
912;SDS011;443;51.448;7.028;2023-07-02T06:54:06;15.57;;;7.00;;
912;SDS011;443;51.448;7.028;2023-07-02T06:56:33;16.40;;;8.00;;
912;SDS011;443;51.448;7.028;2023-07-02T06:58:59;15.00;;;7.23;;
912;SDS011;443;51.448;7.028;2023-07-02T07:01:26;21.60;;;6.73;;
912;SDS011;443;51.448;7.028;2023-07-02T07:03:54;17.40;;;7.70;;
912;SDS011;443;51.448;7.028;2023-07-02T07:06:21;15.10;;;7.03;;
912;SDS011;443;51.448;7.028;2023-07-02T07:08:48;14.13;;;6.47;;
912;SDS011;443;51.448;7.028;2023-07-02T07:11:15;18.70;;;8.30;;
912;SDS011;443;51.448;7.028;2023-07-02T07:13:42;14.27;;;7.53;;
912;SDS011;443;51.448;7.028;2023-07-02T07:16:09;16.90;;;7.37;;
912;SDS011;443;51.448;7.028;2023-07-02T07:18:37;18.10;;;7.63;;
912;SDS011;443;51.448;7.028;2023-07-02T07:21:05;10.57;;;6.10;;
912;SDS011;443;51.448;7.028;2023-07-02T07:23:32;12.50;;;6.07;;
912;SDS011;443;51.448;7.028;2023-07-02T07:25:58;13.40;;;6.77;;
912;SDS011;443;51.448;7.028;2023-07-02T07:28:25;15.30;;;7.50;;
912;SDS011;443;51.448;7.028;2023-07-02T07:30:52;22.93;;;9.17;;
912;SDS011;443;51.448;7.028;2023-07-02T07:33:18;15.87;;;7.77;;
912;SDS011;443;51.448;7.028;2023-07-02T07:35:45;12.70;;;7.07;;
912;SDS011;443;51.448;7.028;2023-07-02T07:38:14;12.30;;;7.30;;
912;SDS011;443;51.448;7.028;2023-07-02T07:40:42;15.10;;;8.40;;
912;SDS011;443;51.448;7.028;2023-07-02T07:43:09;20.50;;;7.60;;
912;SDS011;443;51.448;7.028;2023-07-02T07:45:36;13.97;;;8.10;;
912;SDS011;443;51.448;7.028;2023-07-02T07:48:03;14.93;;;6.93;;
912;SDS011;443;51.448;7.028;2023-07-02T07:50:30;12.53;;;7.23;;
912;SDS011;443;51.448;7.028;2023-07-02T07:52:57;18.93;;;8.40;;
912;SDS011;443;51.448;7.028;2023-07-02T07:55:26;17.13;;;6.67;;
912;SDS011;443;51.448;7.028;2023-07-02T07:57:52;17.03;;;6.53;;
912;SDS011;443;51.448;7.028;2023-07-02T08:00:19;11.33;;;6.20;;
912;SDS011;443;51.448;7.028;2023-07-02T08:02:46;13.30;;;7.17;;
912;SDS011;443;51.448;7.028;2023-07-02T08:05:13;12.60;;;6.00;;
912;SDS011;443;51.448;7.028;2023-07-02T08:07:40;8.67;;;4.80;;
912;SDS011;443;51.448;7.028;2023-07-02T08:10:07;10.53;;;6.20;;
912;SDS011;443;51.448;7.028;2023-07-02T08:12:35;13.13;;;6.30;;
912;SDS011;443;51.448;7.028;2023-07-02T08:15:03;10.73;;;6.17;;
912;SDS011;443;51.448;7.028;2023-07-02T08:17:30;16.23;;;6.13;;
912;SDS011;443;51.448;7.028;2023-07-02T08:19:57;9.27;;;5.10;;
912;SDS011;443;51.448;7.028;2023-07-02T08:22:23;12.43;;;6.20;;
912;SDS011;443;51.448;7.028;2023-07-02T08:24:50;13.80;;;5.73;;
912;SDS011;443;51.448;7.028;2023-07-02T08:27:17;14.20;;;6.93;;
912;SDS011;443;51.448;7.028;2023-07-02T08:29:46;9.70;;;5.40;;
912;SDS011;443;51.448;7.028;2023-07-02T08:32:13;18.90;;;6.87;;
912;SDS011;443;51.448;7.028;2023-07-02T08:34:40;8.87;;;5.80;;
912;SDS011;443;51.448;7.028;2023-07-02T08:37:07;11.50;;;5.70;;
912;SDS011;443;51.448;7.028;2023-07-02T08:39:34;9.50;;;5.60;;
912;SDS011;443;51.448;7.028;2023-07-02T08:42:01;8.93;;;4.23;;
912;SDS011;443;51.448;7.028;2023-07-02T08:44:27;9.67;;;5.53;;
912;SDS011;443;51.448;7.028;2023-07-02T08:46:55;9.30;;;4.70;;
912;SDS011;443;51.448;7.028;2023-07-02T08:49:22;11.73;;;5.60;;
912;SDS011;443;51.448;7.028;2023-07-02T08:51:49;14.00;;;5.93;;
912;SDS011;443;51.448;7.028;2023-07-02T08:54:17;10.43;;;5.20;;
912;SDS011;443;51.448;7.028;2023-07-02T08:56:44;9.60;;;5.83;;
912;SDS011;443;51.448;7.028;2023-07-02T08:59:11;18.43;;;5.60;;
912;SDS011;443;51.448;7.028;2023-07-02T09:01:44;9.17;;;4.47;;
912;SDS011;443;51.448;7.028;2023-07-02T09:04:16;10.30;;;5.27;;
912;SDS011;443;51.448;7.028;2023-07-02T09:06:44;9.30;;;5.17;;
912;SDS011;443;51.448;7.028;2023-07-02T09:09:11;8.33;;;3.90;;
912;SDS011;443;51.448;7.028;2023-07-02T09:11:46;10.87;;;5.60;;
912;SDS011;443;51.448;7.028;2023-07-02T09:14:23;13.90;;;4.40;;
912;SDS011;443;51.448;7.028;2023-07-02T09:17:00;5.73;;;3.07;;
912;SDS011;443;51.448;7.028;2023-07-02T09:19:29;9.37;;;5.00;;
912;SDS011;443;51.448;7.028;2023-07-02T09:21:57;13.37;;;4.80;;
912;SDS011;443;51.448;7.028;2023-07-02T09:24:25;7.50;;;4.80;;
912;SDS011;443;51.448;7.028;2023-07-02T09:26:54;6.97;;;4.03;;
912;SDS011;443;51.448;7.028;2023-07-02T09:29:22;12.70;;;5.67;;
912;SDS011;443;51.448;7.028;2023-07-02T09:31:50;7.80;;;4.63;;
912;SDS011;443;51.448;7.028;2023-07-02T09:34:17;10.17;;;6.00;;
912;SDS011;443;51.448;7.028;2023-07-02T09:36:45;11.40;;;5.60;;
912;SDS011;443;51.448;7.028;2023-07-02T09:39:13;11.70;;;5.97;;
912;SDS011;443;51.448;7.028;2023-07-02T09:41:41;8.37;;;3.30;;
912;SDS011;443;51.448;7.028;2023-07-02T09:44:08;10.07;;;4.67;;
912;SDS011;443;51.448;7.028;2023-07-02T09:46:36;8.57;;;5.60;;
912;SDS011;443;51.448;7.028;2023-07-02T09:49:06;15.70;;;5.93;;
912;SDS011;443;51.448;7.028;2023-07-02T09:51:36;15.10;;;5.93;;
912;SDS011;443;51.448;7.028;2023-07-02T09:54:05;11.73;;;6.17;;
912;SDS011;443;51.448;7.028;2023-07-02T09:56:32;11.37;;;5.00;;
912;SDS011;443;51.448;7.028;2023-07-02T09:58:58;13.37;;;6.27;;
912;SDS011;443;51.448;7.028;2023-07-02T10:01:25;18.97;;;6.13;;
912;SDS011;443;51.448;7.028;2023-07-02T10:03:52;9.00;;;4.90;;
912;SDS011;443;51.448;7.028;2023-07-02T10:06:19;14.03;;;6.23;;
912;SDS011;443;51.448;7.028;2023-07-02T10:08:52;14.87;;;6.57;;
912;SDS011;443;51.448;7.028;2023-07-02T10:11:27;12.23;;;5.80;;
912;SDS011;443;51.448;7.028;2023-07-02T10:13:59;10.70;;;5.00;;
912;SDS011;443;51.448;7.028;2023-07-02T10:16:26;8.00;;;4.80;;
912;SDS011;443;51.448;7.028;2023-07-02T10:19:07;6.93;;;4.10;;
912;SDS011;443;51.448;7.028;2023-07-02T10:21:34;7.60;;;4.43;;
912;SDS011;443;51.448;7.028;2023-07-02T10:24:08;10.10;;;4.30;;
912;SDS011;443;51.448;7.028;2023-07-02T10:26:37;8.40;;;4.67;;
912;SDS011;443;51.448;7.028;2023-07-02T10:29:05;8.97;;;4.80;;
912;SDS011;443;51.448;7.028;2023-07-02T10:31:32;9.47;;;4.83;;
912;SDS011;443;51.448;7.028;2023-07-02T10:33:59;11.20;;;5.27;;
912;SDS011;443;51.448;7.028;2023-07-02T10:36:26;5.90;;;4.13;;
912;SDS011;443;51.448;7.028;2023-07-02T10:38:52;5.50;;;3.60;;
912;SDS011;443;51.448;7.028;2023-07-02T10:41:23;11.00;;;4.73;;
912;SDS011;443;51.448;7.028;2023-07-02T10:43:52;10.87;;;4.57;;
912;SDS011;443;51.448;7.028;2023-07-02T10:46:19;11.50;;;4.17;;
912;SDS011;443;51.448;7.028;2023-07-02T10:48:53;10.10;;;5.20;;
912;SDS011;443;51.448;7.028;2023-07-02T10:51:20;8.10;;;4.10;;
912;SDS011;443;51.448;7.028;2023-07-02T10:53:56;13.97;;;6.30;;
912;SDS011;443;51.448;7.028;2023-07-02T10:56:24;10.50;;;4.70;;
912;SDS011;443;51.448;7.028;2023-07-02T10:58:53;9.27;;;4.50;;
912;SDS011;443;51.448;7.028;2023-07-02T11:01:23;12.67;;;6.87;;
912;SDS011;443;51.448;7.028;2023-07-02T11:03:57;8.40;;;4.47;;
912;SDS011;443;51.448;7.028;2023-07-02T11:06:25;7.60;;;4.67;;
912;SDS011;443;51.448;7.028;2023-07-02T11:08:52;10.07;;;4.70;;
912;SDS011;443;51.448;7.028;2023-07-02T11:11:21;8.60;;;4.07;;
912;SDS011;443;51.448;7.028;2023-07-02T11:13:48;7.67;;;4.50;;
912;SDS011;443;51.448;7.028;2023-07-02T11:16:21;6.80;;;4.10;;
912;SDS011;443;51.448;7.028;2023-07-02T11:18:50;10.33;;;3.90;;
912;SDS011;443;51.448;7.028;2023-07-02T11:21:20;6.93;;;3.70;;
912;SDS011;443;51.448;7.028;2023-07-02T11:23:47;10.40;;;4.10;;
912;SDS011;443;51.448;7.028;2023-07-02T11:26:14;9.20;;;4.57;;
912;SDS011;443;51.448;7.028;2023-07-02T11:28:47;8.90;;;4.20;;
912;SDS011;443;51.448;7.028;2023-07-02T11:31:25;6.57;;;4.37;;
912;SDS011;443;51.448;7.028;2023-07-02T11:33:52;10.53;;;4.60;;
912;SDS011;443;51.448;7.028;2023-07-02T11:36:20;12.50;;;5.40;;
912;SDS011;443;51.448;7.028;2023-07-02T11:38:49;10.33;;;4.63;;
912;SDS011;443;51.448;7.028;2023-07-02T11:41:16;7.17;;;3.97;;
912;SDS011;443;51.448;7.028;2023-07-02T11:43:43;15.40;;;5.23;;
912;SDS011;443;51.448;7.028;2023-07-02T11:46:10;10.40;;;4.90;;
912;SDS011;443;51.448;7.028;2023-07-02T11:48:38;12.87;;;4.80;;
912;SDS011;443;51.448;7.028;2023-07-02T11:51:05;9.40;;;5.43;;
912;SDS011;443;51.448;7.028;2023-07-02T11:53:32;9.47;;;5.17;;
912;SDS011;443;51.448;7.028;2023-07-02T11:55:59;6.97;;;4.30;;
912;SDS011;443;51.448;7.028;2023-07-02T11:58:25;6.67;;;4.07;;
912;SDS011;443;51.448;7.028;2023-07-02T12:00:52;10.20;;;4.10;;
912;SDS011;443;51.448;7.028;2023-07-02T12:03:19;10.43;;;4.70;;
912;SDS011;443;51.448;7.028;2023-07-02T12:05:47;8.30;;;4.07;;
912;SDS011;443;51.448;7.028;2023-07-02T12:08:13;5.27;;;3.57;;
912;SDS011;443;51.448;7.028;2023-07-02T12:10:40;8.60;;;3.37;;
912;SDS011;443;51.448;7.028;2023-07-02T12:13:07;4.60;;;2.53;;
912;SDS011;443;51.448;7.028;2023-07-02T12:15:34;7.00;;;4.30;;
912;SDS011;443;51.448;7.028;2023-07-02T12:18:01;5.80;;;3.70;;
912;SDS011;443;51.448;7.028;2023-07-02T12:20:28;7.50;;;4.57;;
912;SDS011;443;51.448;7.028;2023-07-02T12:22:56;5.77;;;3.17;;
912;SDS011;443;51.448;7.028;2023-07-02T12:25:23;7.17;;;3.23;;
912;SDS011;443;51.448;7.028;2023-07-02T12:27:49;9.27;;;4.20;;
912;SDS011;443;51.448;7.028;2023-07-02T12:30:16;14.80;;;5.10;;
912;SDS011;443;51.448;7.028;2023-07-02T12:32:43;13.43;;;4.47;;
912;SDS011;443;51.448;7.028;2023-07-02T12:35:10;8.87;;;5.10;;
912;SDS011;443;51.448;7.028;2023-07-02T12:37:42;5.13;;;4.07;;
912;SDS011;443;51.448;7.028;2023-07-02T12:40:11;11.73;;;4.90;;
912;SDS011;443;51.448;7.028;2023-07-02T12:42:38;8.73;;;5.60;;
912;SDS011;443;51.448;7.028;2023-07-02T12:45:05;11.40;;;5.80;;
912;SDS011;443;51.448;7.028;2023-07-02T12:47:33;10.77;;;4.10;;
912;SDS011;443;51.448;7.028;2023-07-02T12:49:59;8.60;;;4.27;;
912;SDS011;443;51.448;7.028;2023-07-02T12:52:27;9.30;;;4.03;;
912;SDS011;443;51.448;7.028;2023-07-02T12:54:55;7.60;;;3.97;;
912;SDS011;443;51.448;7.028;2023-07-02T12:57:23;6.97;;;4.27;;
912;SDS011;443;51.448;7.028;2023-07-02T12:59:51;8.10;;;3.80;;
912;SDS011;443;51.448;7.028;2023-07-02T13:02:18;8.00;;;6.10;;
912;SDS011;443;51.448;7.028;2023-07-02T13:04:44;10.40;;;4.40;;
912;SDS011;443;51.448;7.028;2023-07-02T13:07:11;8.23;;;4.70;;
912;SDS011;443;51.448;7.028;2023-07-02T13:09:38;6.50;;;3.83;;
912;SDS011;443;51.448;7.028;2023-07-02T13:12:05;10.23;;;4.77;;
912;SDS011;443;51.448;7.028;2023-07-02T13:14:33;7.70;;;4.90;;
912;SDS011;443;51.448;7.028;2023-07-02T13:17:00;8.90;;;4.03;;
912;SDS011;443;51.448;7.028;2023-07-02T13:19:28;10.70;;;4.60;;
912;SDS011;443;51.448;7.028;2023-07-02T13:21:55;10.13;;;6.30;;
912;SDS011;443;51.448;7.028;2023-07-02T13:24:21;14.40;;;6.30;;
912;SDS011;443;51.448;7.028;2023-07-02T13:26:48;11.70;;;6.17;;
912;SDS011;443;51.448;7.028;2023-07-02T13:29:15;9.40;;;6.20;;
912;SDS011;443;51.448;7.028;2023-07-02T13:31:43;8.50;;;4.97;;
912;SDS011;443;51.448;7.028;2023-07-02T13:34:10;16.53;;;5.50;;
912;SDS011;443;51.448;7.028;2023-07-02T13:36:37;8.50;;;6.10;;
912;SDS011;443;51.448;7.028;2023-07-02T13:39:04;9.03;;;4.70;;
912;SDS011;443;51.448;7.028;2023-07-02T13:41:31;9.07;;;4.47;;
912;SDS011;443;51.448;7.028;2023-07-02T13:43:58;8.90;;;5.40;;
912;SDS011;443;51.448;7.028;2023-07-02T13:46:25;15.70;;;7.03;;
912;SDS011;443;51.448;7.028;2023-07-02T13:48:53;10.53;;;5.50;;
912;SDS011;443;51.448;7.028;2023-07-02T13:51:20;6.20;;;2.90;;
912;SDS011;443;51.448;7.028;2023-07-02T13:53:47;10.00;;;6.23;;
912;SDS011;443;51.448;7.028;2023-07-02T13:56:13;16.50;;;6.50;;
912;SDS011;443;51.448;7.028;2023-07-02T13:58:58;10.63;;;5.00;;
912;SDS011;443;51.448;7.028;2023-07-02T14:01:26;8.40;;;5.00;;
912;SDS011;443;51.448;7.028;2023-07-02T14:03:53;10.50;;;4.87;;
912;SDS011;443;51.448;7.028;2023-07-02T14:06:19;10.77;;;6.00;;
912;SDS011;443;51.448;7.028;2023-07-02T14:08:46;8.33;;;5.80;;
912;SDS011;443;51.448;7.028;2023-07-02T14:11:13;13.90;;;7.10;;
912;SDS011;443;51.448;7.028;2023-07-02T14:13:40;14.33;;;6.00;;
912;SDS011;443;51.448;7.028;2023-07-02T14:16:08;11.77;;;5.73;;
912;SDS011;443;51.448;7.028;2023-07-02T14:18:35;15.73;;;6.53;;
912;SDS011;443;51.448;7.028;2023-07-02T14:21:02;14.43;;;6.10;;
912;SDS011;443;51.448;7.028;2023-07-02T14:23:28;8.77;;;5.10;;
912;SDS011;443;51.448;7.028;2023-07-02T14:25:55;10.33;;;5.40;;
912;SDS011;443;51.448;7.028;2023-07-02T14:28:22;9.10;;;4.40;;
912;SDS011;443;51.448;7.028;2023-07-02T14:30:55;10.20;;;4.17;;
912;SDS011;443;51.448;7.028;2023-07-02T14:33:24;14.13;;;6.37;;
912;SDS011;443;51.448;7.028;2023-07-02T14:35:52;9.13;;;5.67;;
912;SDS011;443;51.448;7.028;2023-07-02T14:38:18;9.03;;;6.03;;
912;SDS011;443;51.448;7.028;2023-07-02T14:40:47;10.63;;;5.93;;
912;SDS011;443;51.448;7.028;2023-07-02T14:43:14;13.70;;;5.97;;
912;SDS011;443;51.448;7.028;2023-07-02T14:45:43;11.40;;;6.37;;
912;SDS011;443;51.448;7.028;2023-07-02T14:48:12;9.57;;;6.50;;
912;SDS011;443;51.448;7.028;2023-07-02T14:50:43;10.27;;;5.23;;
912;SDS011;443;51.448;7.028;2023-07-02T14:53:10;13.17;;;5.73;;
912;SDS011;443;51.448;7.028;2023-07-02T14:55:37;10.97;;;4.43;;
912;SDS011;443;51.448;7.028;2023-07-02T14:58:05;9.93;;;5.77;;
912;SDS011;443;51.448;7.028;2023-07-02T15:00:31;11.07;;;5.20;;
912;SDS011;443;51.448;7.028;2023-07-02T15:02:58;11.00;;;5.17;;
912;SDS011;443;51.448;7.028;2023-07-02T15:05:25;12.33;;;5.40;;
912;SDS011;443;51.448;7.028;2023-07-02T15:07:53;13.20;;;6.47;;
912;SDS011;443;51.448;7.028;2023-07-02T15:10:20;10.53;;;5.90;;
912;SDS011;443;51.448;7.028;2023-07-02T15:12:47;16.80;;;7.40;;
912;SDS011;443;51.448;7.028;2023-07-02T15:15:13;12.33;;;6.20;;
912;SDS011;443;51.448;7.028;2023-07-02T15:17:41;11.10;;;5.97;;
912;SDS011;443;51.448;7.028;2023-07-02T15:20:08;14.53;;;5.97;;
912;SDS011;443;51.448;7.028;2023-07-02T15:22:35;10.43;;;5.67;;
912;SDS011;443;51.448;7.028;2023-07-02T15:25:05;12.47;;;6.30;;
912;SDS011;443;51.448;7.028;2023-07-02T15:27:32;12.10;;;6.63;;
912;SDS011;443;51.448;7.028;2023-07-02T15:29:59;11.83;;;5.43;;
912;SDS011;443;51.448;7.028;2023-07-02T15:32:25;17.63;;;6.90;;
912;SDS011;443;51.448;7.028;2023-07-02T15:34:52;12.67;;;7.40;;
912;SDS011;443;51.448;7.028;2023-07-02T15:37:19;9.77;;;6.00;;